Impacts TAF Board INFO
FOR SITUATIONAL AWARENESS. NOT TO BE USED FOR FLIGHT PLANNING PURPOSES.
IDs:

KFLL - Ft Lauderdale-Hollyw, FL, US

Issued at 2106 UTC 13 Dec 2017
Updated at 2236 UTC 13 Dec 2017
Potential Impact None Slight Moderate High
Time<<14/11Z 14/12Z 14/13Z 14/14Z 14/15Z 14/16Z 14/17Z 14/18Z 14/19Z 14/20Z 14/21Z 14/22Z 14/23Z>>
Type PRVL PRVL PRVL PRVL PRVL PRVL PRVL PRVL PRVL PRVL PRVL PRVL PRVL
VIS >6 >6 >6 >6 >6 >6 >6 >6 >6 >6 >6 >6 >6
CIG -- -- -- -- -- -- -- -- -- -- -- -- --
Cover FEW FEW FEW FEW FEW FEW FEW FEW FEW FEW FEW FEW FEW
FltCat VFR VFR VFR VFR VFR VFR VFR VFR VFR VFR VFR VFR VFR
WX -- -- -- -- -- -- -- -- -- -- -- -- --
WDir VRB VRB VRB VRB VRB VRB VRB VRB VRB VRB VRB VRB VRB
WSpd 2 2 2 5 5 5 5 5 5 5 5 5 5
WGst -- -- -- -- -- -- -- -- -- -- -- -- --

Raw TAF
KFLL 132106Z 1321/1424 30008KT P6SM FEW200
  FM140100 VRB02KT P6SM FEW200
  FM141400 VRB05KT P6SM FEW200


METAR Board
Radar Display
Forecast Discussion

FOR SITUATIONAL AWARENESS. NOT TO BE USED FOR FLIGHT PLANNING PURPOSES.